Time;durP1;ratioP1;P1;durP2;ratioP2;P2;SDS_P1;SDS_P2;PMS_P1;PMS_P2;Temp;Humidity;BMP_temperature;BMP_pressure;BME280_temperature;BME280_humidity;BME280_pressure;Samples;Min_cycle;Max_cycle;Signal;HPM_P1;HPM_P2
2023/06/10 00:00:21;;;;;;;6.05;4.22;;;;;;;22.08;41.52;99867.44;5074528;28;20064;-79
2023/06/10 00:02:47;;;;;;;8.32;4.80;;;;;;;22.06;41.56;99866.78;5065604;28;20072;-79
2023/06/10 00:05:16;;;;;;;8.38;5.13;;;;;;;22.02;41.70;99860.91;5037115;28;20063;-79
2023/06/10 00:07:42;;;;;;;11.52;4.93;;;;;;;21.99;41.61;99864.72;5036918;28;20064;-79
2023/06/10 00:10:10;;;;;;;7.22;5.05;;;;;;;21.95;41.82;99868.75;5036884;28;20049;-79
2023/06/10 00:12:38;;;;;;;8.57;5.00;;;;;;;21.92;41.93;99863.69;5041190;28;20560;-80
2023/06/10 00:15:06;;;;;;;6.57;4.35;;;;;;;21.89;42.10;99863.16;5074252;28;20049;-79
2023/06/10 00:17:33;;;;;;;5.70;4.82;;;;;;;21.85;42.12;99868.84;5055715;28;20061;-79
2023/06/10 00:20:00;;;;;;;9.32;4.95;;;;;;;21.83;42.36;99861.97;5074054;28;20075;-78
2023/06/10 00:22:29;;;;;;;7.97;5.05;;;;;;;21.81;42.10;99861.28;5056001;28;20060;-79
2023/06/10 00:24:59;;;;;;;9.85;4.80;;;;;;;21.78;42.39;99861.59;5044210;28;20794;-78
2023/06/10 00:27:31;;;;;;;6.35;4.68;;;;;;;21.74;42.33;99861.94;5065791;28;20441;-78
2023/06/10 00:29:58;;;;;;;12.20;5.60;;;;;;;21.72;42.33;99853.19;5036580;28;20053;-78
2023/06/10 00:32:24;;;;;;;7.28;5.05;;;;;;;21.70;42.56;99857.84;5053979;28;20406;-78
2023/06/10 00:34:51;;;;;;;6.60;4.63;;;;;;;21.66;42.59;99855.63;5053179;28;20059;-79
2023/06/10 00:37:17;;;;;;;9.73;4.97;;;;;;;21.63;42.48;99854.13;5056319;28;20049;-78
2023/06/10 00:39:44;;;;;;;8.65;5.38;;;;;;;21.59;42.86;99853.59;5074005;28;20044;-79
2023/06/10 00:42:11;;;;;;;7.10;5.10;;;;;;;21.56;42.62;99853.91;5056088;28;20048;-79
2023/06/10 00:44:37;;;;;;;8.23;5.10;;;;;;;21.52;43.13;99854.41;5043332;28;20064;-78
2023/06/10 00:47:05;;;;;;;9.65;5.13;;;;;;;21.47;43.24;99861.06;5036306;28;20063;-78
2023/06/10 00:49:33;;;;;;;10.52;4.93;;;;;;;21.45;43.09;99864.88;5053882;28;20057;-78
2023/06/10 00:51:59;;;;;;;9.25;5.35;;;;;;;21.43;43.32;99867.72;5036021;28;20659;-78
2023/06/10 00:54:26;;;;;;;9.93;5.53;;;;;;;21.39;43.50;99858.31;5043357;28;20044;-79
2023/06/10 00:56:53;;;;;;;8.63;5.50;;;;;;;21.37;43.35;99868.31;5055764;28;20049;-79
2023/06/10 00:59:20;;;;;;;5.70;4.80;;;;;;;21.35;43.37;99863.13;5073475;28;20049;-80
2023/06/10 01:01:47;;;;;;;8.02;4.90;;;;;;;21.32;43.50;99862.59;5073907;28;20416;-79
2023/06/10 01:04:14;;;;;;;7.82;4.88;;;;;;;21.28;43.24;99863.91;5052211;28;20132;-78
2023/06/10 01:06:53;;;;;;;7.63;5.22;;;;;;;21.20;43.91;99864.69;5052763;28;20118;-79
2023/06/10 01:09:40;;;;;;;9.15;4.70;;;;;;;21.16;43.99;99857.97;5035673;28;20084;-79
2023/06/10 01:12:18;;;;;;;7.28;5.00;;;;;;;21.15;44.52;99857.09;5053589;28;20099;-79
2023/06/10 01:14:45;;;;;;;7.95;4.93;;;;;;;21.16;43.90;99864.13;5039854;28;20048;-78
2023/06/10 01:17:16;;;;;;;10.90;4.82;;;;;;;21.13;43.96;99861.78;5073385;28;20048;-79
2023/06/10 01:19:44;;;;;;;8.52;5.25;;;;;;;21.11;44.48;99870.97;5073112;28;20090;-78
2023/06/10 01:22:15;;;;;;;7.05;4.80;;;;;;;21.10;44.23;99870.13;5055391;28;20087;-79
2023/06/10 01:24:43;;;;;;;8.48;5.22;;;;;;;21.08;44.12;99872.09;5053848;28;20063;-79
2023/06/10 01:27:14;;;;;;;6.22;4.88;;;;;;;21.05;44.65;99872.41;5072955;28;20052;-79
2023/06/10 01:29:45;;;;;;;8.38;5.30;;;;;;;21.02;44.55;99873.56;5055526;28;20068;-79
2023/06/10 01:32:17;;;;;;;7.75;5.15;;;;;;;20.99;44.89;99878.38;5055630;28;20135;-78
2023/06/10 01:34:44;;;;;;;7.90;5.10;;;;;;;20.96;44.34;99882.19;5053748;28;20481;-78
2023/06/10 01:37:17;;;;;;;8.05;5.50;;;;;;;20.91;44.98;99881.81;5064647;28;20063;-79
2023/06/10 01:39:46;;;;;;;6.95;5.30;;;;;;;20.89;44.69;99889.16;5055148;28;20506;-79
2023/06/10 01:42:14;;;;;;;12.02;5.38;;;;;;;20.87;44.75;99892.00;5055125;28;20044;-79
2023/06/10 01:44:41;;;;;;;9.25;5.97;;;;;;;20.85;44.66;99890.44;5053260;28;20053;-79
2023/06/10 01:47:08;;;;;;;8.68;5.40;;;;;;;20.82;45.15;99888.91;5057946;28;20044;-79
2023/06/10 01:49:35;;;;;;;7.38;5.18;;;;;;;20.78;44.83;99891.03;5046466;28;20049;-78
2023/06/10 01:52:02;;;;;;;9.85;5.55;;;;;;;20.75;44.92;99893.16;5035084;28;20053;-79
2023/06/10 01:54:29;;;;;;;16.23;5.35;;;;;;;20.71;45.17;99892.63;5039608;28;20072;-79
2023/06/10 01:56:55;;;;;;;10.63;5.25;;;;;;;20.68;45.12;99892.94;5072228;28;20469;-78
2023/06/10 01:59:22;;;;;;;7.68;4.82;;;;;;;20.63;45.25;99895.22;5072390;28;20468;-78
2023/06/10 02:01:48;;;;;;;11.68;5.40;;;;;;;20.59;45.43;99893.81;5054856;28;20073;-78
2023/06/10 02:04:16;;;;;;;7.90;5.47;;;;;;;20.56;45.23;99897.66;5053997;28;20055;-79
2023/06/10 02:06:43;;;;;;;9.65;5.50;;;;;;;20.51;45.47;99892.72;5034546;28;20059;-78
2023/06/10 02:09:09;;;;;;;11.07;5.30;;;;;;;20.47;45.48;99888.66;5034625;28;20143;-78
2023/06/10 02:11:36;;;;;;;7.88;4.82;;;;;;;20.43;45.82;99879.25;5034704;28;20049;-78
2023/06/10 02:14:03;;;;;;;8.38;5.68;;;;;;;20.38;45.86;99878.88;5052129;28;20056;-78
2023/06/10 02:16:30;;;;;;;8.18;5.15;;;;;;;20.33;45.74;99895.34;5052699;28;20049;-80
2023/06/10 02:18:57;;;;;;;6.60;4.90;;;;;;;20.29;45.86;99888.63;5033672;28;20147;-78
2023/06/10 02:21:24;;;;;;;11.68;5.35;;;;;;;20.24;46.05;99888.22;5034196;28;20057;-79
2023/06/10 02:23:50;;;;;;;7.30;4.95;;;;;;;20.20;45.92;99894.84;5051952;28;20477;-78
2023/06/10 02:26:17;;;;;;;8.50;4.97;;;;;;;20.13;46.28;99895.44;5062705;28;20059;-78
2023/06/10 02:28:44;;;;;;;10.20;5.60;;;;;;;20.07;46.60;99901.34;5054053;28;20059;-79
2023/06/10 02:31:11;;;;;;;8.32;5.07;;;;;;;20.02;46.63;99899.13;5054169;28;20504;-78
2023/06/10 02:33:40;;;;;;;11.07;5.30;;;;;;;19.99;46.42;99902.09;5054262;28;20052;-79
2023/06/10 02:36:06;;;;;;;7.93;4.90;;;;;;;19.94;46.88;99899.00;5063866;28;20041;-78
2023/06/10 02:38:33;;;;;;;5.80;4.90;;;;;;;19.90;46.69;99901.13;5033794;28;20505;-79
2023/06/10 02:40:59;;;;;;;7.90;5.28;;;;;;;19.87;46.82;99903.22;5033944;28;20171;-78
2023/06/10 02:43:26;;;;;;;7.32;5.15;;;;;;;19.82;47.00;99902.81;5033852;28;20064;-78
2023/06/10 02:45:53;;;;;;;8.23;5.32;;;;;;;19.78;46.88;99907.63;5034934;28;20048;-79
2023/06/10 02:48:19;;;;;;;11.23;5.85;;;;;;;19.74;46.67;99906.22;5051701;28;20071;-79
2023/06/10 02:50:46;;;;;;;8.70;5.57;;;;;;;19.70;46.82;99905.63;5033880;28;20064;-79
2023/06/10 02:53:13;;;;;;;9.20;5.53;;;;;;;19.66;47.45;99910.44;5033849;28;20584;-79
2023/06/10 02:55:40;;;;;;;8.40;4.85;;;;;;;19.64;46.90;99906.22;5033616;28;20080;-78
2023/06/10 02:58:07;;;;;;;7.35;4.68;;;;;;;19.61;47.29;99904.69;5051638;28;20084;-79
2023/06/10 03:00:34;;;;;;;7.00;5.63;;;;;;;19.60;47.31;99900.34;5051837;28;20416;-78
2023/06/10 03:03:03;;;;;;;7.63;5.47;;;;;;;19.56;47.00;99898.94;5041914;28;20064;-78
2023/06/10 03:05:30;;;;;;;6.65;4.80;;;;;;;19.55;47.43;99907.09;5033650;28;20132;-78
2023/06/10 03:07:56;;;;;;;10.25;5.22;;;;;;;19.52;47.38;99909.03;5033523;28;20057;-78
2023/06/10 03:10:23;;;;;;;9.65;5.35;;;;;;;19.50;47.32;99904.84;5036551;28;20488;-78
2023/06/10 03:12:49;;;;;;;9.13;5.03;;;;;;;19.47;47.72;99907.81;5063669;28;20068;-78
2023/06/10 03:15:16;;;;;;;9.73;5.70;;;;;;;19.46;48.08;99906.97;5043354;28;20048;-78
2023/06/10 03:17:42;;;;;;;8.43;5.72;;;;;;;19.44;47.85;99911.56;5053278;28;20049;-78
2023/06/10 03:20:10;;;;;;;6.18;5.07;;;;;;;19.43;47.83;99914.41;5071162;28;20436;-79
2023/06/10 03:22:37;;;;;;;10.90;5.55;;;;;;;19.41;47.94;99911.88;5034041;28;20084;-78
2023/06/10 03:25:05;;;;;;;9.00;4.95;;;;;;;19.40;47.60;99913.69;5033259;28;20060;-79
2023/06/10 03:27:33;;;;;;;8.85;5.30;;;;;;;19.38;47.70;99913.00;5051127;28;20140;-78
2023/06/10 03:30:00;;;;;;;9.30;5.43;;;;;;;19.35;47.70;99918.63;5056558;28;20048;-78
2023/06/10 03:32:26;;;;;;;8.70;5.40;;;;;;;19.34;47.71;99921.44;5041002;28;20057;-78
2023/06/10 03:34:56;;;;;;;10.05;5.93;;;;;;;19.30;47.80;99928.88;5058428;28;20048;-78
2023/06/10 03:37:24;;;;;;;11.07;5.93;;;;;;;19.27;48.12;99915.81;5059724;28;20058;-78
2023/06/10 03:39:51;;;;;;;9.40;5.50;;;;;;;19.24;47.98;99921.41;5059655;28;20151;-79
2023/06/10 03:42:18;;;;;;;10.65;5.57;;;;;;;19.21;47.88;99919.88;5048678;28;20106;-78
2023/06/10 03:47:18;;;;;;;7.45;5.47;;;;;;;19.18;48.24;99922.84;5091980;22;20068;-80
2023/06/10 03:49:44;;;;;;;9.55;5.13;;;;;;;19.17;48.25;99925.66;5077521;28;20071;-80
2023/06/10 03:52:11;;;;;;;10.05;5.82;;;;;;;19.14;48.54;99930.25;5062810;28;20566;-80
2023/06/10 03:54:37;;;;;;;10.95;5.13;;;;;;;19.13;48.44;99933.06;5057559;28;20052;-80
2023/06/10 03:57:05;;;;;;;10.00;5.50;;;;;;;19.11;48.36;99932.38;5057076;28;20489;-80
2023/06/10 03:59:32;;;;;;;11.57;5.55;;;;;;;19.08;48.82;99930.84;5057468;28;20057;-80
2023/06/10 04:02:01;;;;;;;10.18;5.70;;;;;;;19.06;48.86;99924.78;5067670;28;20103;-80
2023/06/10 04:04:27;;;;;;;6.13;5.20;;;;;;;19.06;48.68;99923.97;5077393;28;20063;-80
2023/06/10 04:06:54;;;;;;;6.13;5.18;;;;;;;19.02;48.95;99912.66;5077011;28;20045;-80
2023/06/10 04:09:21;;;;;;;7.32;4.93;;;;;;;19.01;48.59;99917.19;5059727;28;20160;-80
2023/06/10 04:11:48;;;;;;;10.15;5.35;;;;;;;19.00;48.64;99920.81;5071244;28;20102;-81
2023/06/10 04:14:15;;;;;;;7.38;5.25;;;;;;;19.01;48.63;99921.66;5057372;28;20065;-80
2023/06/10 04:16:42;;;;;;;8.55;5.60;;;;;;;19.00;48.57;99919.97;5056829;28;20045;-80
2023/06/10 04:19:09;;;;;;;8.90;5.45;;;;;;;18.98;48.36;99919.25;5057116;28;20053;-80
2023/06/10 04:21:35;;;;;;;12.15;4.88;;;;;;;18.95;48.77;99914.22;5058117;28;20052;-80
2023/06/10 04:24:02;;;;;;;9.30;5.07;;;;;;;18.93;48.95;99914.34;5077070;28;20052;-80
2023/06/10 04:26:29;;;;;;;8.05;4.90;;;;;;;18.91;48.89;99932.31;5076888;28;20485;-80
2023/06/10 04:28:56;;;;;;;9.35;5.50;;;;;;;18.90;48.85;99919.97;5076940;28;20416;-79
2023/06/10 04:31:23;;;;;;;7.13;4.57;;;;;;;18.88;48.72;99928.09;5077043;28;20056;-80
2023/06/10 04:33:50;;;;;;;8.20;4.90;;;;;;;18.87;48.73;99930.91;5073490;28;20427;-80
2023/06/10 04:36:16;;;;;;;8.00;5.47;;;;;;;18.87;48.87;99923.75;5058344;28;20056;-81
2023/06/10 04:38:43;;;;;;;9.65;4.72;;;;;;;18.88;49.20;99929.94;5056854;28;20053;-80
2023/06/10 04:41:09;;;;;;;9.85;4.60;;;;;;;18.88;48.91;99933.44;5053972;28;20061;-80
2023/06/10 04:43:36;;;;;;;8.20;4.82;;;;;;;18.91;49.30;99926.16;5065560;28;20464;-79
2023/06/10 04:46:03;;;;;;;9.00;4.93;;;;;;;18.91;49.29;99921.63;5073552;28;20048;-81
2023/06/10 04:48:35;;;;;;;11.23;5.63;;;;;;;18.94;49.01;99936.53;5073721;28;20498;-80
2023/06/10 04:51:01;;;;;;;7.53;4.72;;;;;;;18.95;49.26;99932.91;5074105;28;20080;-82
2023/06/10 04:53:28;;;;;;;10.43;4.97;;;;;;;18.96;49.45;99930.09;5057488;28;20648;-80
2023/06/10 04:55:55;;;;;;;8.70;5.53;;;;;;;18.97;49.41;99929.09;5053551;28;20052;-80
2023/06/10 04:58:21;;;;;;;7.00;4.35;;;;;;;19.00;49.34;99930.66;5053462;28;20099;-80
2023/06/10 05:00:48;;;;;;;6.75;4.97;;;;;;;19.01;49.47;99925.19;5035656;28;20529;-80
2023/06/10 05:03:15;;;;;;;8.13;4.70;;;;;;;19.04;49.45;99934.72;5054375;28;20134;-80
2023/06/10 05:05:41;;;;;;;7.68;4.90;;;;;;;19.06;49.29;99934.63;5053136;28;20386;-80
2023/06/10 05:08:08;;;;;;;7.40;4.65;;;;;;;19.07;49.32;99926.50;5035736;28;20056;-80
2023/06/10 05:10:35;;;;;;;6.43;4.50;;;;;;;19.09;49.33;99940.53;5053289;28;20065;-80
2023/06/10 05:13:02;;;;;;;8.30;4.45;;;;;;;19.11;49.76;99933.19;5041167;28;20048;-80
2023/06/10 05:15:30;;;;;;;7.65;4.57;;;;;;;19.14;49.42;99942.78;5073111;28;20382;-80
2023/06/10 05:18:02;;;;;;;6.63;4.35;;;;;;;19.18;49.53;99935.34;5073004;28;20813;-80
2023/06/10 05:20:29;;;;;;;9.40;4.70;;;;;;;19.22;49.47;99939.41;5073382;28;20136;-81
2023/06/10 05:22:56;;;;;;;5.93;4.07;;;;;;;19.25;49.57;99941.81;5053161;28;20435;-80
2023/06/10 05:25:22;;;;;;;9.25;4.95;;;;;;;19.29;49.60;99945.03;5053019;28;20060;-80
2023/06/10 05:27:49;;;;;;;7.97;4.53;;;;;;;19.33;49.79;99947.25;5052973;28;20136;-80
2023/06/10 05:30:18;;;;;;;12.32;4.43;;;;;;;19.37;49.65;99946.00;5052980;28;20045;-80
2023/06/10 05:32:44;;;;;;;8.55;4.47;;;;;;;19.41;49.71;99943.91;5052867;28;20056;-80
2023/06/10 05:35:11;;;;;;;11.32;4.47;;;;;;;19.47;49.93;99958.53;5070706;28;20048;-80
2023/06/10 05:37:38;;;;;;;9.10;4.25;;;;;;;19.51;49.81;99960.75;5072885;28;20692;-80
2023/06/10 05:40:06;;;;;;;6.25;4.03;;;;;;;19.58;49.52;99954.88;5072763;28;20052;-79
2023/06/10 05:42:32;;;;;;;11.20;4.32;;;;;;;19.62;49.67;99957.09;5054719;28;20135;-79
2023/06/10 05:44:59;;;;;;;8.18;4.40;;;;;;;19.66;49.64;99958.50;5058403;28;20052;-79
2023/06/10 05:47:25;;;;;;;6.55;3.90;;;;;;;19.70;49.50;99952.88;5051954;28;20053;-79
2023/06/10 05:49:52;;;;;;;6.38;3.90;;;;;;;19.74;49.31;99965.78;5034279;28;20118;-78
2023/06/10 05:52:19;;;;;;;11.88;4.60;;;;;;;19.77;49.49;99959.31;5050971;28;20052;-80
2023/06/10 05:54:46;;;;;;;6.30;4.07;;;;;;;19.80;49.18;99964.38;5059756;28;20489;-78
2023/06/10 05:57:13;;;;;;;7.18;4.28;;;;;;;19.83;49.05;99957.91;5058945;28;20052;-80
2023/06/10 05:59:39;;;;;;;8.57;4.15;;;;;;;19.85;49.22;99958.63;5049510;28;20045;-80
2023/06/10 06:02:06;;;;;;;8.38;4.18;;;;;;;19.87;49.78;99960.16;5072548;28;20092;-78
2023/06/10 06:04:34;;;;;;;6.68;4.22;;;;;;;19.90;49.45;99953.69;5068698;28;20049;-78
2023/06/10 06:07:01;;;;;;;7.07;4.28;;;;;;;19.94;49.57;99949.75;5034308;28;20452;-79
2023/06/10 06:09:27;;;;;;;8.63;4.30;;;;;;;19.98;49.45;99955.63;5052330;28;20069;-79
2023/06/10 06:11:54;;;;;;;7.68;4.68;;;;;;;20.02;49.29;99952.59;5052039;28;20061;-80
2023/06/10 06:14:21;;;;;;;7.80;4.13;;;;;;;20.07;49.58;99953.97;5052241;28;20053;-79
2023/06/10 06:16:47;;;;;;;8.63;4.65;;;;;;;20.11;49.32;99956.19;5071406;28;20428;-79
2023/06/10 06:19:14;;;;;;;9.38;4.20;;;;;;;20.14;49.40;99955.91;5054344;28;20135;-80
2023/06/10 06:21:40;;;;;;;7.45;4.25;;;;;;;20.20;49.47;99956.31;5071866;28;20113;-79
2023/06/10 06:24:07;;;;;;;7.93;4.75;;;;;;;20.24;49.63;99955.03;5071738;28;20068;-79
2023/06/10 06:26:34;;;;;;;6.72;4.35;;;;;;;20.28;49.87;99959.97;5056105;28;20535;-79
2023/06/10 06:29:01;;;;;;;8.02;4.32;;;;;;;20.35;49.52;99967.38;5050925;28;20053;-79
2023/06/10 06:31:27;;;;;;;9.85;4.43;;;;;;;20.39;49.46;99966.97;5051065;28;20122;-79
2023/06/10 06:33:54;;;;;;;6.15;3.95;;;;;;;20.46;48.80;99963.69;5051073;28;20144;-79
2023/06/10 06:36:20;;;;;;;6.75;3.63;;;;;;;20.51;49.03;99967.59;5042921;28;20079;-79
2023/06/10 06:38:47;;;;;;;7.40;4.45;;;;;;;20.57;49.05;99968.84;5064625;28;20543;-80
2023/06/10 06:41:14;;;;;;;6.47;4.10;;;;;;;20.63;48.79;99973.59;5051087;28;20053;-79
2023/06/10 06:43:42;;;;;;;8.57;4.40;;;;;;;20.67;48.90;99972.31;5034196;28;20060;-80
2023/06/10 06:46:09;;;;;;;8.25;4.57;;;;;;;20.72;49.24;99968.34;5056719;28;20056;-79
2023/06/10 06:48:35;;;;;;;7.57;3.90;;;;;;;20.78;48.73;99971.28;5071429;28;20059;-81
2023/06/10 06:51:02;;;;;;;6.88;4.20;;;;;;;20.85;49.04;99962.66;5071333;28;20122;-79
2023/06/10 06:53:29;;;;;;;9.07;4.35;;;;;;;20.88;49.26;99968.56;5071222;28;20147;-78
2023/06/10 06:55:57;;;;;;;6.95;4.40;;;;;;;20.93;49.40;99960.94;5069860;28;20055;-79
2023/06/10 06:58:24;;;;;;;8.50;4.53;;;;;;;21.00;49.56;99965.72;5051357;28;20460;-80
2023/06/10 07:00:51;;;;;;;8.10;4.40;;;;;;;21.06;49.44;99973.13;5061822;28;20052;-78
2023/06/10 07:03:17;;;;;;;9.07;4.32;;;;;;;21.12;49.37;99961.78;5071047;28;20079;-79
2023/06/10 07:05:44;;;;;;;7.07;4.30;;;;;;;21.18;49.09;99971.91;5071187;28;20059;-79
2023/06/10 07:08:11;;;;;;;9.45;4.93;;;;;;;21.23;49.12;99974.13;5054639;28;20073;-80
2023/06/10 07:10:38;;;;;;;7.00;4.07;;;;;;;21.31;49.11;99979.56;5033604;28;20057;-79
2023/06/10 07:13:05;;;;;;;7.78;4.25;;;;;;;21.38;49.27;99974.44;5062479;28;20504;-79
2023/06/10 07:15:32;;;;;;;11.45;4.95;;;;;;;21.45;49.15;99975.50;5063520;28;20122;-79
2023/06/10 07:17:59;;;;;;;10.50;5.03;;;;;;;21.54;48.78;99978.25;5061482;28;20400;-80
2023/06/10 07:20:25;;;;;;;7.15;4.53;;;;;;;21.60;49.02;99983.00;5056340;28;20079;-78
2023/06/10 07:22:52;;;;;;;8.40;4.40;;;;;;;21.67;48.96;99980.53;5050951;28;20516;-80
2023/06/10 07:25:19;;;;;;;8.27;4.75;;;;;;;21.74;49.07;99979.81;5033418;28;20053;-79
2023/06/10 07:27:45;;;;;;;6.88;4.60;;;;;;;21.82;48.94;99986.22;5033014;28;20056;-79
2023/06/10 07:30:12;;;;;;;7.43;4.22;;;;;;;21.89;48.77;99989.09;5060135;28;20088;-80
2023/06/10 07:32:39;;;;;;;6.85;4.40;;;;;;;21.95;48.72;99988.50;5071009;28;20048;-80
2023/06/10 07:35:08;;;;;;;5.40;3.95;;;;;;;22.00;48.87;99999.59;5070834;28;20625;-79
2023/06/10 07:37:36;;;;;;;6.60;4.32;;;;;;;22.08;48.39;99985.41;5070462;28;20114;-79
2023/06/10 07:40:03;;;;;;;7.38;4.63;;;;;;;22.16;48.36;99987.31;5067733;28;20053;-80
2023/06/10 07:42:32;;;;;;;7.57;3.90;;;;;;;22.22;48.76;99987.50;5070988;28;20104;-81
2023/06/10 07:45:00;;;;;;;7.68;4.60;;;;;;;22.31;48.42;99982.19;5051738;28;20160;-80
2023/06/10 07:47:26;;;;;;;7.70;4.93;;;;;;;22.38;48.41;99980.53;5051240;28;20084;-80
2023/06/10 07:49:53;;;;;;;7.47;4.03;;;;;;;22.48;48.34;99980.44;5070030;28;20056;-80
2023/06/10 07:52:20;;;;;;;6.03;4.32;;;;;;;22.54;48.44;99985.16;5070281;28;20068;-80
2023/06/10 07:54:46;;;;;;;7.38;4.55;;;;;;;22.63;48.09;99978.03;5070176;28;20059;-80
2023/06/10 07:57:13;;;;;;;6.60;4.50;;;;;;;22.69;47.98;99976.53;5052444;28;20052;-80
2023/06/10 07:59:39;;;;;;;7.22;4.95;;;;;;;22.76;48.21;99983.78;5070390;28;20111;-80
2023/06/10 08:02:06;;;;;;;6.75;3.78;;;;;;;22.84;48.08;99987.50;5054566;28;20053;-80
2023/06/10 08:04:34;;;;;;;12.18;5.00;;;;;;;22.90;48.55;99976.94;5050727;28;20448;-80
2023/06/10 08:07:02;;;;;;;8.88;4.70;;;;;;;23.00;47.86;99979.50;5050185;28;20063;-80
2023/06/10 08:09:29;;;;;;;12.25;5.32;;;;;;;23.10;48.29;99976.66;5050676;28;20149;-80
2023/06/10 08:11:55;;;;;;;11.75;4.97;;;;;;;23.19;48.23;99982.91;5044401;28;20140;-80
2023/06/10 08:14:22;;;;;;;7.60;4.95;;;;;;;23.28;48.15;99978.34;5070654;28;20106;-80
2023/06/10 08:16:48;;;;;;;6.63;4.88;;;;;;;23.36;47.85;99989.16;5071917;28;20059;-80
2023/06/10 08:19:15;;;;;;;7.20;4.75;;;;;;;23.48;47.46;99984.31;5056761;28;20110;-80
2023/06/10 08:21:42;;;;;;;5.70;4.53;;;;;;;23.56;47.62;99989.66;5066971;28;20057;-80
2023/06/10 08:24:09;;;;;;;9.75;5.50;;;;;;;23.67;47.51;99985.81;5054269;28;20049;-80
2023/06/10 08:26:36;;;;;;;6.40;4.45;;;;;;;23.75;47.44;99981.44;5053865;28;20080;-80
2023/06/10 08:29:02;;;;;;;6.18;4.55;;;;;;;23.85;47.03;99986.66;5054007;28;20049;-79
2023/06/10 08:31:29;;;;;;;6.65;4.40;;;;;;;23.94;47.04;99980.25;5056272;28;20044;-80
2023/06/10 08:33:56;;;;;;;9.88;4.90;;;;;;;24.03;46.67;99973.03;5074247;28;20143;-79
2023/06/10 08:36:22;;;;;;;8.00;4.18;;;;;;;24.12;46.73;99979.25;5073994;28;20053;-80
2023/06/10 08:38:49;;;;;;;7.15;4.10;;;;;;;24.22;46.74;99981.75;5073912;28;20053;-79
2023/06/10 08:41:17;;;;;;;9.35;4.28;;;;;;;24.31;46.62;99983.41;5073819;28;20056;-80
2023/06/10 08:43:54;;;;;;;7.18;4.72;;;;;;;24.39;46.24;99985.22;5038414;28;20126;-79
2023/06/10 08:46:22;;;;;;;6.28;4.22;;;;;;;24.51;46.83;99991.91;5073264;28;20126;-80
2023/06/10 08:48:55;;;;;;;8.85;5.03;;;;;;;24.58;46.36;99982.16;5073707;28;20118;-79
2023/06/10 08:51:24;;;;;;;;;;;;;;;24.67;46.59;99985.63;5074306;28;20053;-80
2023/06/10 08:54:03;;;;;;;5.85;4.05;;;;;;;24.79;46.57;99996.03;5072545;28;20447;-79
2023/06/10 08:56:32;;;;;;;6.82;4.55;;;;;;;24.89;45.63;99993.16;5073436;28;20056;-79
2023/06/10 08:58:59;;;;;;;10.90;4.70;;;;;;;24.94;45.91;99991.63;5073787;28;20087;-79
2023/06/10 09:01:25;;;;;;;8.35;4.40;;;;;;;25.00;45.91;99991.91;5073416;28;20048;-79
2023/06/10 09:03:52;;;;;;;6.70;4.13;;;;;;;25.06;46.13;99989.34;5071457;28;20056;-80
2023/06/10 09:06:20;;;;;;;9.40;4.32;;;;;;;25.14;45.35;99988.47;5073384;28;20056;-80
2023/06/10 09:08:46;;;;;;;5.15;3.72;;;;;;;25.22;45.05;99983.03;5073384;28;20057;-80
2023/06/10 09:11:13;;;;;;;7.78;4.70;;;;;;;25.31;45.25;99980.28;5073711;28;20068;-80
2023/06/10 09:13:40;;;;;;;7.57;4.50;;;;;;;25.38;45.00;99987.47;5048693;28;20049;-79
2023/06/10 09:16:06;;;;;;;8.98;4.55;;;;;;;25.47;44.51;99979.31;5053295;28;20053;-80
2023/06/10 09:18:34;;;;;;;8.45;4.03;;;;;;;25.54;44.65;99977.59;5035491;28;20091;-80
2023/06/10 09:21:01;;;;;;;5.70;3.78;;;;;;;25.62;44.56;99976.69;5035526;28;20136;-80
2023/06/10 09:23:28;;;;;;;5.88;4.40;;;;;;;25.70;45.08;99970.38;5055694;28;20076;-81
2023/06/10 09:25:58;;;;;;;6.40;3.88;;;;;;;25.78;44.01;99975.72;5072791;28;20048;-80
2023/06/10 09:28:25;;;;;;;8.32;4.28;;;;;;;25.86;44.10;99972.94;5072892;28;20048;-79
2023/06/10 09:31:05;;;;;;;8.02;4.00;;;;;;;25.92;43.58;99975.91;5072901;28;20058;-79
2023/06/10 09:33:32;;;;;;;6.28;4.07;;;;;;;26.05;43.72;99981.53;5072053;28;20128;-80
2023/06/10 09:36:01;;;;;;;7.15;3.78;;;;;;;26.12;43.45;99977.06;5052411;28;20048;-80
2023/06/10 09:38:34;;;;;;;8.52;4.13;;;;;;;26.20;43.70;99976.13;5052973;28;20068;-79
2023/06/10 09:41:02;;;;;;;7.60;3.88;;;;;;;26.29;43.07;99976.94;5052665;28;20045;-80
2023/06/10 09:43:43;;;;;;;7.97;4.30;;;;;;;26.35;43.63;99976.19;5052904;28;20739;-80
2023/06/10 09:46:19;;;;;;;5.18;3.92;;;;;;;26.45;43.12;99970.50;5090095;22;20052;-80
2023/06/10 09:48:47;;;;;;;8.10;4.32;;;;;;;26.58;43.60;99969.00;5071462;28;20102;-79
2023/06/10 09:51:16;;;;;;;6.93;4.35;;;;;;;26.68;43.20;99972.25;5071949;28;20051;-80
2023/06/10 09:53:48;;;;;;;5.20;3.72;;;;;;;26.76;42.57;99969.44;5054311;28;20055;-79
2023/06/10 09:56:15;;;;;;;8.40;3.78;;;;;;;26.87;42.34;99973.50;5053983;28;20048;-79
2023/06/10 09:58:43;;;;;;;5.85;3.80;;;;;;;26.97;42.27;99972.41;5034407;28;20060;-79
2023/06/10 10:01:11;;;;;;;8.20;3.72;;;;;;;27.05;41.63;99975.84;5051773;28;20496;-79
2023/06/10 10:03:46;;;;;;;5.15;3.97;;;;;;;27.14;40.86;99973.00;5033939;28;20092;-79
2023/06/10 10:06:14;;;;;;;7.38;3.80;;;;;;;27.24;41.37;99975.41;5066257;28;20052;-80
2023/06/10 10:08:41;;;;;;;4.72;3.58;;;;;;;27.30;41.33;99977.31;5071430;28;20054;-79
2023/06/10 10:11:08;;;;;;;5.30;3.70;;;;;;;27.37;40.38;99975.53;5071485;28;20514;-79
2023/06/10 10:13:35;;;;;;;4.05;3.20;;;;;;;27.43;40.41;99972.03;5071360;28;20553;-79
2023/06/10 10:16:10;;;;;;;7.05;3.63;;;;;;;27.50;41.36;99976.69;5070987;28;20063;-79
2023/06/10 10:18:40;;;;;;;6.15;3.97;;;;;;;27.56;40.27;99979.44;5071087;28;20139;-79
2023/06/10 10:21:11;;;;;;;4.82;3.83;;;;;;;27.66;40.66;99973.72;5071474;28;20055;-79
2023/06/10 10:23:50;;;;;;;7.22;4.57;;;;;;;27.74;40.04;99970.06;5071533;28;20091;-79
2023/06/10 10:26:17;;;;;;;5.63;4.22;;;;;;;27.88;40.01;99984.50;5053239;28;20049;-79
2023/06/10 10:29:07;;;;;;;4.82;3.47;;;;;;;27.95;40.90;99977.28;5071049;28;20063;-79
2023/06/10 10:31:36;;;;;;;4.75;3.40;;;;;;;28.12;40.35;99974.28;5071101;28;20064;-80
2023/06/10 10:34:09;;;;;;;8.15;3.75;;;;;;;28.24;39.36;99974.56;5071261;28;20080;-80
2023/06/10 10:36:36;;;;;;;8.82;3.92;;;;;;;28.38;39.05;99972.78;5070478;28;20075;-79
2023/06/10 10:39:04;;;;;;;4.43;3.35;;;;;;;28.52;39.41;99978.28;5070295;28;20479;-79
2023/06/10 10:41:32;;;;;;;4.95;3.28;;;;;;;28.68;39.41;99975.22;5070772;28;20565;-79
2023/06/10 10:44:00;;;;;;;11.02;3.63;;;;;;;28.92;39.35;99975.75;5071133;28;20130;-79
2023/06/10 10:46:27;;;;;;;3.88;3.20;;;;;;;29.21;39.00;99981.88;5070248;28;20510;-79
2023/06/10 10:48:56;;;;;;;4.15;3.30;;;;;;;29.57;39.91;99970.88;5070782;28;20498;-79
2023/06/10 10:51:24;;;;;;;7.40;3.90;;;;;;;30.01;39.18;99965.84;5053030;28;20051;-78
2023/06/10 10:54:13;;;;;;;7.30;3.70;;;;;;;30.55;38.89;99972.00;5070558;28;20086;-79
2023/06/10 10:57:12;;;;;;;7.25;3.58;;;;;;;31.20;38.06;99975.66;5057660;28;20080;-79
2023/06/10 10:59:48;;;;;;;5.20;3.30;;;;;;;31.87;37.61;99978.91;5070466;28;20098;-79
2023/06/10 11:02:33;;;;;;;3.85;2.90;;;;;;;32.45;36.32;99970.63;5070430;28;20159;-79
2023/06/10 11:05:00;;;;;;;5.05;3.22;;;;;;;33.01;35.13;99965.13;5070504;28;20469;-79
2023/06/10 11:07:30;;;;;;;4.95;3.22;;;;;;;33.49;33.81;99966.03;5070478;28;20056;-80
2023/06/10 11:09:59;;;;;;;5.30;3.22;;;;;;;33.90;34.51;99960.75;5070466;28;20052;-79
2023/06/10 11:12:38;;;;;;;6.25;3.03;;;;;;;34.26;33.50;99957.16;5050345;28;20053;-80
2023/06/10 11:15:05;;;;;;;4.45;2.80;;;;;;;34.63;31.81;99962.31;5050474;28;20056;-80
2023/06/10 11:17:32;;;;;;;17.20;3.70;;;;;;;34.93;31.74;99944.84;5050394;28;20053;-80
2023/06/10 11:19:59;;;;;;;6.43;3.55;;;;;;;35.24;31.50;99951.97;5050380;28;20059;-80
2023/06/10 11:22:26;;;;;;;4.55;3.15;;;;;;;35.53;30.30;99951.84;5067996;28;20048;-80
2023/06/10 11:24:52;;;;;;;4.05;2.78;;;;;;;35.77;29.50;99943.50;5069789;28;20052;-80
2023/06/10 11:27:22;;;;;;;4.38;2.90;;;;;;;35.95;29.10;99950.59;5070109;28;20495;-80
2023/06/10 11:30:03;;;;;;;3.45;2.88;;;;;;;36.11;30.16;99954.38;5070324;28;20510;-79
2023/06/10 11:32:31;;;;;;;7.10;3.05;;;;;;;36.33;29.36;99948.09;5070331;28;20048;-79
2023/06/10 11:34:59;;;;;;;4.68;2.70;;;;;;;36.50;27.96;99943.38;5069726;28;20751;-80
2023/06/10 11:37:25;;;;;;;6.55;3.20;;;;;;;36.66;27.85;99946.31;5069652;28;20048;-79